createdAt,value
2019-02-18T00:00:18.016Z,70.98
2019-02-18T00:01:17.992Z,70.78
2019-02-18T00:02:17.976Z,71.50
2019-02-18T00:03:17.971Z,71.81
2019-02-18T00:04:17.955Z,72.05
2019-02-18T00:05:17.968Z,72.26
2019-02-18T00:06:17.931Z,72.67
2019-02-18T00:07:17.926Z,72.81
2019-02-18T00:08:17.913Z,72.91
2019-02-18T00:09:17.905Z,73.33
2019-02-18T00:10:17.907Z,73.33
2019-02-18T00:11:17.885Z,73.57
2019-02-18T00:12:17.869Z,74.08
2019-02-18T00:13:17.860Z,74.08
2019-02-18T00:14:17.845Z,73.98
2019-02-18T00:15:17.853Z,74.43
2019-02-18T00:16:17.823Z,74.50
2019-02-18T00:17:17.822Z,74.71
2019-02-18T00:18:17.809Z,75.46
2019-02-18T00:19:17.795Z,75.05
2019-02-18T00:20:17.795Z,75.36
2019-02-18T00:21:17.776Z,75.05
2019-02-18T00:22:17.761Z,75.26
2019-02-18T00:23:17.756Z,75.46
2019-02-18T00:24:17.740Z,75.19
2019-02-18T00:25:17.745Z,75.19
2019-02-18T00:26:17.717Z,75.40
2019-02-18T00:27:17.711Z,74.98
2019-02-18T00:28:17.693Z,75.15
2019-02-18T00:29:17.690Z,75.15
2019-02-18T00:30:17.689Z,75.50
2019-02-18T00:31:17.668Z,75.57
2019-02-18T00:32:17.649Z,74.74
2019-02-18T00:33:17.645Z,74.29
2019-02-18T00:34:17.630Z,73.77
2019-02-18T00:35:18.977Z,73.67
2019-02-18T00:36:17.608Z,73.46
2019-02-18T00:37:24.130Z,73.25
2019-02-18T00:38:18.590Z,72.85
2019-02-18T00:39:17.586Z,72.85
2019-02-18T00:40:17.580Z,73.15
2019-02-18T00:41:17.558Z,72.74
2019-02-18T00:42:17.546Z,73.05
2019-02-18T00:43:17.537Z,72.85
2019-02-18T00:44:17.521Z,72.81
2019-02-18T00:45:17.534Z,72.64
2019-02-18T00:46:17.502Z,72.64
2019-02-18T00:47:17.524Z,72.64
2019-02-18T00:48:17.479Z,72.53
2019-02-18T00:49:17.478Z,72.94
2019-02-18T00:50:17.477Z,72.94
2019-02-18T00:51:17.454Z,72.85
2019-02-18T00:52:17.446Z,73.08
2019-02-18T00:53:17.433Z,73.36
2019-02-18T00:54:17.414Z,73.36
2019-02-18T00:55:17.422Z,72.94
2019-02-18T00:56:17.393Z,72.74
2019-02-18T00:57:17.396Z,73.57
2019-02-18T00:58:17.387Z,73.60
2019-02-18T00:59:17.367Z,73.81
2019-02-18T01:00:17.370Z,74.02
2019-02-18T01:01:17.343Z,74.32
2019-02-18T01:02:17.333Z,74.02
2019-02-18T01:03:17.332Z,74.02
2019-02-18T01:04:17.314Z,73.91
2019-02-18T01:05:17.315Z,74.12
2019-02-18T01:06:17.284Z,74.43
2019-02-18T01:07:17.278Z,74.22
2019-02-18T01:08:17.262Z,73.91
2019-02-18T01:09:17.261Z,74.12
2019-02-18T01:10:17.256Z,73.91
2019-02-18T01:11:17.234Z,73.60
2019-02-18T01:12:17.225Z,73.81
2019-02-18T01:13:17.215Z,74.02
2019-02-18T01:14:17.205Z,73.81
2019-02-18T01:15:17.218Z,74.02
2019-02-18T01:16:17.181Z,73.81
2019-02-18T01:17:17.188Z,74.22
2019-02-18T01:18:17.174Z,73.81
2019-02-18T01:19:17.215Z,73.60
2019-02-18T01:20:17.202Z,73.50
2019-02-18T01:21:17.220Z,73.60
2019-02-18T01:22:17.166Z,72.94
2019-02-18T01:23:17.169Z,72.98
2019-02-18T01:24:17.090Z,72.74
2019-02-18T01:25:18.119Z,72.85
2019-02-18T01:26:17.073Z,72.85
2019-02-18T01:27:17.165Z,72.74
2019-02-18T01:28:17.047Z,72.64
2019-02-18T01:29:17.064Z,72.74
2019-02-18T01:30:17.029Z,73.19
2019-02-18T01:31:18.038Z,73.19
2019-02-18T01:32:17.007Z,73.39
2019-02-18T01:33:18.002Z,73.50
2019-02-18T01:34:16.984Z,73.74
2019-02-18T01:35:17.980Z,74.15
2019-02-18T01:36:16.974Z,74.46
2019-02-18T01:37:17.963Z,74.98
2019-02-18T01:38:16.948Z,74.88
2019-02-18T01:39:17.934Z,74.81
2019-02-18T01:40:16.919Z,75.22
2019-02-18T01:41:16.928Z,75.43
2019-02-18T01:42:16.898Z,74.81
2019-02-18T01:43:16.954Z,75.02
2019-02-18T01:44:16.878Z,74.81
2019-02-18T01:45:16.968Z,75.12
2019-02-18T01:46:16.869Z,74.40
2019-02-18T01:47:16.879Z,74.46
2019-02-18T01:48:16.832Z,74.05
2019-02-18T01:49:16.895Z,73.81
2019-02-18T01:50:16.817Z,73.60
2019-02-18T01:51:16.834Z,73.39
2019-02-18T01:52:16.789Z,73.29
2019-02-18T01:53:16.826Z,73.74
2019-02-18T01:54:16.771Z,74.05
2019-02-18T01:55:16.841Z,73.94
2019-02-18T01:56:16.761Z,74.36
2019-02-18T01:57:16.854Z,73.94
2019-02-18T01:58:16.725Z,74.22
2019-02-18T01:59:16.761Z,73.71
2019-02-18T02:00:16.703Z,73.60
2019-02-18T02:01:16.801Z,74.15
2019-02-18T02:02:16.695Z,73.71
2019-02-18T02:03:16.684Z,74.02
2019-02-18T02:04:16.660Z,73.81
2019-02-18T02:05:16.700Z,73.71
2019-02-18T02:06:16.655Z,73.71
2019-02-18T02:07:16.713Z,73.50
2019-02-18T02:08:16.615Z,73.29
2019-02-18T02:09:16.621Z,73.60
2019-02-18T02:10:16.594Z,73.50
2019-02-18T02:11:16.602Z,74.02
2019-02-18T02:12:16.571Z,74.05
2019-02-18T02:13:16.660Z,75.02
2019-02-18T02:14:16.552Z,75.19
2019-02-18T02:15:16.565Z,75.12
2019-02-18T02:16:16.544Z,75.84
2019-02-18T02:17:16.581Z,75.63
2019-02-18T02:18:16.509Z,75.02
2019-02-18T02:19:16.595Z,75.95
2019-02-18T02:20:16.484Z,76.19
2019-02-18T02:21:16.528Z,76.81
2019-02-18T02:22:16.466Z,75.88
2019-02-18T02:23:16.521Z,75.98
2019-02-18T02:24:16.443Z,77.23
2019-02-18T02:25:16.436Z,77.19
2019-02-18T02:26:16.438Z,77.85
2019-02-18T02:27:16.454Z,77.23
2019-02-18T02:28:16.399Z,76.19
2019-02-18T02:29:16.466Z,77.54
2019-02-18T02:30:16.380Z,77.12
2019-02-18T02:31:16.494Z,77.68
2019-02-18T02:32:16.356Z,77.47
2019-02-18T02:33:16.380Z,77.37
2019-02-18T02:34:16.339Z,78.20
2019-02-18T02:35:16.398Z,78.51
2019-02-18T02:36:16.412Z,77.89
2019-02-18T02:37:16.413Z,78.44
2019-02-18T02:38:16.291Z,78.55
2019-02-18T02:39:16.343Z,78.96
2019-02-18T02:40:16.269Z,79.61
2019-02-18T02:41:16.359Z,79.61
2019-02-18T02:42:16.251Z,79.51
2019-02-18T02:43:16.351Z,79.65
2019-02-18T02:44:16.228Z,79.65
2019-02-18T02:45:16.259Z,79.44
2019-02-18T02:46:16.218Z,79.65
2019-02-18T02:47:16.293Z,79.44
2019-02-18T02:48:16.184Z,79.86
2019-02-18T02:49:16.286Z,79.51
2019-02-18T02:50:16.179Z,78.44
2019-02-18T02:51:16.218Z,77.92
2019-02-18T02:52:16.176Z,77.72
2019-02-18T02:53:16.213Z,77.20
2019-02-18T02:54:16.120Z,76.02
2019-02-18T02:55:16.232Z,76.12
2019-02-18T02:56:16.113Z,76.12
2019-02-18T02:57:16.136Z,74.88
2019-02-18T02:58:16.076Z,75.60
2019-02-18T02:59:16.153Z,75.40
2019-02-18T03:00:16.061Z,75.71
2019-02-18T03:01:16.085Z,76.43
2019-02-18T03:02:16.035Z,77.09
2019-02-18T03:03:16.077Z,77.82
2019-02-18T03:04:16.012Z,77.64
2019-02-18T03:05:17.132Z,78.20
2019-02-18T03:06:16.007Z,77.99
2019-02-18T03:07:17.989Z,78.65
2019-02-18T03:08:20.355Z,79.69
2019-02-18T03:09:22.468Z,79.58
2019-02-18T03:10:15.947Z,79.48
2019-02-18T03:11:16.058Z,79.58
2019-02-18T03:12:15.934Z,79.38
2019-02-18T03:13:15.939Z,79.90
2019-02-18T03:14:15.906Z,79.80
2019-02-18T03:15:15.956Z,79.80
2019-02-18T03:16:15.885Z,79.58
2019-02-18T03:17:16.003Z,79.80
2019-02-18T03:18:15.869Z,79.90
2019-02-18T03:19:15.896Z,79.17
2019-02-18T03:20:15.844Z,78.61
2019-02-18T03:21:15.891Z,77.99
2019-02-18T03:22:15.889Z,77.54
2019-02-18T03:23:15.904Z,76.99
2019-02-18T03:24:15.815Z,77.12
2019-02-18T03:25:15.818Z,77.02
2019-02-18T03:26:15.778Z,77.30
2019-02-18T03:27:15.856Z,77.23
2019-02-18T03:28:15.760Z,77.33
2019-02-18T03:29:15.842Z,76.57
2019-02-18T03:30:15.737Z,76.40
2019-02-18T03:31:15.756Z,77.02
2019-02-18T03:32:15.729Z,77.47
2019-02-18T03:33:15.775Z,77.89
2019-02-18T03:34:15.704Z,78.55
2019-02-18T03:35:15.783Z,78.75
2019-02-18T03:36:15.674Z,79.06
2019-02-18T03:37:15.719Z,79.83
2019-02-18T03:38:15.650Z,79.10
2019-02-18T03:39:15.710Z,80.15
2019-02-18T03:40:15.634Z,80.29
2019-02-18T03:41:15.723Z,80.60
2019-02-18T03:42:15.626Z,80.60
2019-02-18T03:43:15.645Z,80.60
2019-02-18T03:44:15.586Z,80.46
2019-02-18T03:45:15.643Z,80.39
2019-02-18T03:46:15.570Z,80.60
2019-02-18T03:47:15.696Z,81.26
2019-02-18T03:48:15.548Z,81.36
2019-02-18T03:49:15.580Z,81.57
2019-02-18T03:50:15.524Z,81.88
2019-02-18T03:51:15.583Z,81.36
2019-02-18T03:52:15.522Z,81.46
2019-02-18T03:53:15.599Z,82.86
2019-02-18T03:54:15.481Z,82.65
2019-02-18T03:55:17.571Z,82.44
2019-02-18T03:56:15.458Z,83.62
2019-02-18T03:57:16.575Z,83.62
2019-02-18T03:58:15.439Z,83.31
2019-02-18T03:59:15.547Z,84.08
2019-02-18T04:00:15.426Z,85.43
2019-02-18T04:01:15.456Z,85.43
2019-02-18T04:02:15.409Z,84.81
2019-02-18T04:03:15.470Z,84.08
2019-02-18T04:04:15.377Z,83.97
2019-02-18T04:05:16.396Z,84.39
2019-02-18T04:06:15.351Z,83.97
2019-02-18T04:07:15.411Z,85.68
2019-02-18T04:08:15.341Z,85.47
2019-02-18T04:09:15.399Z,86.10
2019-02-18T04:10:15.311Z,86.24
2019-02-18T04:11:15.413Z,86.30
2019-02-18T04:12:15.308Z,87.39
2019-02-18T04:13:15.326Z,86.97
2019-02-18T04:14:15.266Z,87.39
2019-02-18T04:15:15.342Z,87.12
2019-02-18T04:16:15.251Z,87.32
2019-02-18T04:17:15.277Z,87.74
2019-02-18T04:18:15.249Z,86.94
2019-02-18T04:19:15.269Z,87.88
2019-02-18T04:20:15.202Z,87.78
2019-02-18T04:21:15.278Z,88.20
2019-02-18T04:22:15.202Z,88.93
2019-02-18T04:23:15.188Z,88.76
2019-02-18T04:24:15.169Z,89.07
2019-02-18T04:25:15.202Z,88.76
2019-02-18T04:26:15.149Z,89.49
2019-02-18T04:27:15.242Z,90.12
2019-02-18T04:28:15.121Z,91.06
2019-02-18T04:29:15.126Z,91.00
2019-02-18T04:30:15.095Z,91.00
2019-02-18T04:31:15.139Z,91.00
2019-02-18T04:32:15.094Z,91.20
2019-02-18T04:33:15.158Z,91.20
2019-02-18T04:34:15.062Z,91.31
2019-02-18T04:35:15.188Z,91.52
2019-02-18T04:36:15.032Z,91.66
2019-02-18T04:37:15.102Z,91.98
2019-02-18T04:38:15.013Z,92.46
2019-02-18T04:39:16.119Z,91.98
2019-02-18T04:40:14.997Z,92.25
2019-02-18T04:41:14.990Z,92.40
2019-02-18T04:42:14.985Z,92.19
2019-02-18T04:43:21.962Z,92.25
2019-02-18T04:44:14.949Z,92.14
2019-02-18T04:45:15.030Z,92.35
2019-02-18T04:46:14.933Z,92.08
2019-02-18T04:47:14.984Z,92.35
2019-02-18T04:48:14.907Z,92.29
2019-02-18T04:49:14.958Z,92.35
2019-02-18T04:50:14.885Z,92.25
2019-02-18T04:51:14.971Z,92.25
2019-02-18T04:52:14.877Z,92.77
2019-02-18T04:53:14.883Z,92.35
2019-02-18T04:54:14.861Z,92.25
2019-02-18T04:55:14.894Z,92.29
2019-02-18T04:56:14.828Z,92.29
2019-02-18T04:57:14.943Z,92.60
2019-02-18T04:58:14.807Z,92.08
2019-02-18T04:59:14.821Z,92.92
2019-02-18T05:00:14.784Z,93.29
2019-02-18T05:01:14.834Z,93.19
2019-02-18T05:02:14.756Z,92.77
2019-02-18T05:03:14.782Z,92.25
2019-02-18T05:04:14.734Z,92.25
2019-02-18T05:05:14.758Z,92.25
2019-02-18T05:06:14.714Z,92.56
2019-02-18T05:07:14.773Z,91.94
2019-02-18T05:08:14.712Z,92.29
2019-02-18T05:09:14.789Z,92.40
2019-02-18T05:10:14.673Z,92.19
2019-02-18T05:11:14.697Z,92.71
2019-02-18T05:12:14.648Z,93.33
2019-02-18T05:13:14.736Z,92.35
2019-02-18T05:14:14.634Z,92.66
2019-02-18T05:15:14.741Z,92.25
2019-02-18T05:16:14.605Z,92.21
2019-02-18T05:17:14.634Z,92.10
2019-02-18T05:18:14.599Z,90.85
2019-02-18T05:19:14.648Z,90.85
2019-02-18T05:20:14.563Z,91.58
2019-02-18T05:21:14.665Z,91.22
2019-02-18T05:22:14.542Z,90.95
2019-02-18T05:23:14.600Z,90.64
2019-02-18T05:24:14.521Z,91.16
2019-02-18T05:25:14.586Z,90.95
2019-02-18T05:26:14.501Z,91.31
2019-02-18T05:27:14.608Z,91.20
2019-02-18T05:28:14.500Z,91.41
2019-02-18T05:29:21.453Z,91.72
2019-02-18T05:30:14.459Z,92.04
2019-02-18T05:31:14.527Z,91.52
2019-02-18T05:32:14.435Z,92.29
2019-02-18T05:33:14.467Z,92.29
2019-02-18T05:34:14.492Z,92.40
2019-02-18T05:35:14.453Z,92.40
2019-02-18T05:36:14.393Z,92.54
2019-02-18T05:37:14.465Z,92.33
2019-02-18T05:38:14.403Z,92.75
2019-02-18T05:39:17.907Z,93.59
2019-02-18T05:40:14.351Z,93.07
2019-02-18T05:41:14.392Z,93.17
2019-02-18T05:42:14.330Z,93.17
2019-02-18T05:43:14.438Z,93.90
2019-02-18T05:44:14.307Z,93.80
2019-02-18T05:45:14.320Z,93.76
2019-02-18T05:46:14.324Z,93.90
2019-02-18T05:47:14.342Z,93.90
2019-02-18T05:48:14.285Z,94.84
2019-02-18T05:49:14.346Z,94.07
2019-02-18T05:50:14.246Z,94.64
2019-02-18T05:51:14.260Z,94.21
2019-02-18T05:52:14.224Z,94.01
2019-02-18T05:53:14.387Z,93.17
2019-02-18T05:54:14.227Z,93.48
2019-02-18T05:55:14.286Z,93.32
2019-02-18T05:56:14.184Z,93.59
2019-02-18T05:57:14.192Z,93.27
2019-02-18T05:58:14.202Z,94.01
2019-02-18T05:59:14.233Z,93.80
2019-02-18T06:00:14.138Z,94.01
2019-02-18T06:01:14.229Z,94.84
2019-02-18T06:02:14.122Z,94.42
2019-02-18T06:03:14.203Z,94.64
2019-02-18T06:04:14.110Z,94.11
2019-02-18T06:05:14.151Z,94.32
2019-02-18T06:06:14.091Z,94.64
2019-02-18T06:07:14.162Z,94.80
2019-02-18T06:08:14.070Z,94.21
2019-02-18T06:09:14.082Z,93.96
2019-02-18T06:10:17.000Z,93.02
2019-02-18T06:11:14.091Z,93.13
2019-02-18T06:12:14.022Z,93.48
2019-02-18T06:13:14.130Z,93.44
2019-02-18T06:14:13.990Z,92.85
2019-02-18T06:15:21.026Z,93.27
2019-02-18T06:16:13.969Z,93.38
2019-02-18T06:17:16.076Z,93.59
2019-02-18T06:18:13.963Z,93.48
2019-02-18T06:19:14.965Z,93.59
2019-02-18T06:20:13.933Z,93.11
2019-02-18T06:21:13.968Z,93.52
2019-02-18T06:22:13.911Z,93.63
2019-02-18T06:23:13.999Z,94.36
2019-02-18T06:24:13.886Z,94.68
2019-02-18T06:25:13.990Z,94.36
2019-02-18T06:26:13.874Z,94.46
2019-02-18T06:27:13.890Z,94.99
2019-02-18T06:28:13.857Z,95.09
2019-02-18T06:29:13.904Z,94.74
2019-02-18T06:30:13.822Z,94.42
2019-02-18T06:31:13.928Z,94.53
2019-02-18T06:32:13.805Z,94.46
2019-02-18T06:33:13.856Z,94.42
2019-02-18T06:34:13.780Z,94.21
2019-02-18T06:35:13.775Z,94.53
2019-02-18T06:36:13.763Z,94.42
2019-02-18T06:37:13.860Z,94.78
2019-02-18T06:38:13.755Z,94.68
2019-02-18T06:39:13.769Z,94.99
2019-02-18T06:40:13.800Z,94.89
2019-02-18T06:41:13.789Z,94.95
2019-02-18T06:42:13.711Z,95.26
2019-02-18T06:43:13.825Z,95.31
2019-02-18T06:44:13.673Z,95.15
2019-02-18T06:45:13.713Z,94.53
2019-02-18T06:46:13.655Z,95.05
2019-02-18T06:47:13.726Z,94.95
2019-02-18T06:48:13.631Z,94.84
2019-02-18T06:49:13.660Z,94.42
2019-02-18T06:50:13.612Z,94.64
2019-02-18T06:51:13.648Z,94.84
2019-02-18T06:52:13.590Z,93.95
2019-02-18T06:53:13.674Z,93.52
2019-02-18T06:54:13.580Z,93.52
2019-02-18T06:55:13.674Z,93.63
2019-02-18T06:56:13.545Z,93.32
2019-02-18T06:57:13.588Z,94.64
2019-02-18T06:58:13.526Z,94.64
2019-02-18T06:59:13.623Z,94.80
2019-02-18T07:00:13.507Z,94.49
2019-02-18T07:01:13.497Z,94.17
2019-02-18T07:02:13.539Z,94.76
2019-02-18T07:03:13.521Z,93.40
2019-02-18T07:04:13.484Z,93.29
2019-02-18T07:05:13.458Z,92.94
2019-02-18T07:06:13.442Z,92.94
2019-02-18T07:07:13.448Z,92.16
2019-02-18T07:08:13.423Z,92.27
2019-02-18T07:09:13.487Z,92.22
2019-02-18T07:10:13.395Z,92.12
2019-02-18T07:11:13.473Z,91.46
2019-02-18T07:12:13.375Z,90.62
2019-02-18T07:13:13.384Z,89.85
2019-02-18T07:14:13.384Z,89.75
2019-02-18T07:15:13.401Z,88.66
2019-02-18T07:16:13.336Z,88.35
2019-02-18T07:17:13.412Z,87.83
2019-02-18T07:18:13.324Z,87.30
2019-02-18T07:19:13.348Z,86.27
2019-02-18T07:20:13.293Z,86.79
2019-02-18T07:21:13.335Z,87.20
2019-02-18T07:22:13.267Z,87.10
2019-02-18T07:23:13.350Z,87.10
2019-02-18T07:24:15.289Z,86.33
2019-02-18T07:25:13.266Z,86.33
2019-02-18T07:26:13.223Z,85.77
2019-02-18T07:27:13.273Z,85.11
2019-02-18T07:28:13.202Z,83.92
2019-02-18T07:29:13.317Z,83.78
2019-02-18T07:30:13.183Z,83.18
2019-02-18T07:31:13.201Z,80.76
2019-02-18T07:32:13.159Z,79.17
2019-02-18T07:33:13.212Z,78.61
2019-02-18T07:34:13.138Z,77.85
2019-02-18T07:35:13.258Z,77.40
2019-02-18T07:36:13.128Z,75.50
2019-02-18T07:37:13.141Z,74.74
2019-02-18T07:38:13.094Z,74.19
2019-02-18T07:39:13.180Z,73.84
2019-02-18T07:40:13.095Z,72.57
2019-02-18T07:41:13.169Z,69.78
2019-02-18T07:42:13.052Z,69.20
2019-02-18T07:43:13.081Z,67.96
2019-02-18T07:44:13.029Z,67.93
2019-02-18T07:45:13.121Z,68.30
2019-02-18T07:46:13.014Z,67.38
2019-02-18T07:47:13.106Z,66.11
2019-02-18T07:48:13.000Z,66.91
2019-02-18T07:49:13.983Z,65.74
2019-02-18T07:50:20.402Z,66.64
2019-02-18T07:51:13.953Z,64.37
2019-02-18T07:52:13.037Z,63.31
2019-02-18T07:53:12.931Z,62.15
2019-02-18T07:54:12.950Z,61.63
2019-02-18T07:55:12.926Z,63.67
2019-02-18T07:56:12.961Z,61.58
2019-02-18T07:57:12.892Z,60.68
2019-02-18T07:58:12.975Z,61.30
2019-02-18T07:59:12.865Z,61.47
2019-02-18T08:00:12.913Z,60.65
2019-02-18T08:01:12.843Z,61.17
2019-02-18T08:02:12.899Z,61.24
2019-02-18T08:03:12.820Z,60.75
2019-02-18T08:04:12.915Z,61.61
2019-02-18T08:05:12.814Z,61.99
2019-02-18T08:06:12.824Z,62.58
2019-02-18T08:07:12.776Z,61.70
2019-02-18T08:08:12.847Z,61.23
2019-02-18T08:09:12.753Z,60.46
2019-02-18T08:10:12.778Z,58.40
2019-02-18T08:11:12.743Z,59.12
2019-02-18T08:12:12.764Z,59.05
2019-02-18T08:13:12.709Z,57.64
2019-02-18T08:14:12.776Z,59.66
2019-02-18T08:15:12.712Z,59.46
2019-02-18T08:16:12.688Z,57.61
2019-02-18T08:17:12.667Z,58.30
2019-02-18T08:18:12.703Z,57.56
2019-02-18T08:19:12.652Z,56.20
2019-02-18T08:20:12.744Z,56.51
2019-02-18T08:21:12.634Z,56.48
2019-02-18T08:22:12.627Z,56.89
2019-02-18T08:23:12.604Z,56.48
2019-02-18T08:24:12.643Z,55.77
2019-02-18T08:25:12.596Z,56.79
2019-02-18T08:26:12.671Z,54.82
2019-02-18T08:27:12.560Z,55.00
2019-02-18T08:28:12.567Z,54.36
2019-02-18T08:29:12.536Z,53.98
2019-02-18T08:30:12.608Z,52.93
2019-02-18T08:31:12.528Z,52.91
2019-02-18T08:32:12.595Z,53.01
2019-02-18T08:33:12.490Z,52.32
2019-02-18T08:34:12.506Z,53.75
2019-02-18T08:35:12.481Z,54.05
2019-02-18T08:36:12.463Z,54.90
2019-02-18T08:37:12.450Z,54.74
2019-02-18T08:38:13.460Z,55.46
2019-02-18T08:39:12.432Z,55.74
2019-02-18T08:40:21.790Z,57.07
2019-02-18T08:41:13.415Z,53.83
2019-02-18T08:42:12.403Z,52.37
2019-02-18T08:43:12.380Z,53.14
2019-02-18T08:44:12.381Z,50.95
2019-02-18T08:45:12.366Z,48.99
2019-02-18T08:46:12.410Z,49.17
2019-02-18T08:47:12.337Z,50.01
2019-02-18T08:48:12.403Z,48.46
2019-02-18T08:49:12.314Z,47.11
2019-02-18T08:50:12.414Z,48.15
2019-02-18T08:51:12.310Z,50.54
2019-02-18T08:52:12.321Z,50.81
2019-02-18T08:53:12.274Z,51.37
2019-02-18T08:54:12.264Z,51.40
2019-02-18T08:55:12.249Z,52.32
2019-02-18T08:56:12.285Z,52.32
2019-02-18T08:57:12.231Z,51.98
2019-02-18T08:58:12.222Z,51.04
2019-02-18T08:59:12.205Z,50.25
2019-02-18T09:00:13.298Z,50.89
2019-02-18T09:01:12.200Z,50.99
2019-02-18T09:02:12.287Z,51.27
2019-02-18T09:03:12.167Z,50.38
2019-02-18T09:04:12.198Z,48.55
2019-02-18T09:05:12.193Z,50.26
2019-02-18T09:06:12.238Z,47.87
2019-02-18T09:07:12.131Z,47.77
2019-02-18T09:08:12.225Z,49.11
2019-02-18T09:09:12.096Z,48.25
2019-02-18T09:10:12.136Z,48.19
2019-02-18T09:11:12.087Z,49.62
2019-02-18T09:12:12.181Z,48.38
2019-02-18T09:13:12.056Z,48.60
2019-02-18T09:14:12.061Z,49.54
2019-02-18T09:15:14.163Z,48.98
2019-02-18T09:16:12.106Z,50.94
2019-02-18T09:17:12.011Z,51.25
2019-02-18T09:18:12.089Z,52.12
2019-02-18T09:19:11.989Z,50.11
2019-02-18T09:20:27.977Z,47.39
2019-02-18T09:21:11.982Z,48.13
2019-02-18T09:22:18.977Z,46.68
2019-02-18T09:23:11.947Z,46.44
2019-02-18T09:24:12.027Z,45.93
2019-02-18T09:25:11.922Z,44.97
2019-02-18T09:26:11.965Z,45.07
2019-02-18T09:27:11.902Z,46.28
2019-02-18T09:28:11.892Z,48.46
2019-02-18T09:29:11.878Z,48.46
2019-02-18T09:30:11.969Z,50.22
2019-02-18T09:31:11.876Z,47.20
2019-02-18T09:32:11.879Z,46.09
2019-02-18T09:33:11.833Z,47.17
2019-02-18T09:34:11.892Z,48.00
2019-02-18T09:35:11.813Z,47.31
2019-02-18T09:36:11.829Z,47.39
2019-02-18T09:37:11.793Z,48.11
2019-02-18T09:38:11.817Z,48.66
2019-02-18T09:39:11.776Z,49.22
2019-02-18T09:40:11.830Z,48.94
2019-02-18T09:41:11.762Z,47.31
2019-02-18T09:42:11.846Z,47.90
2019-02-18T09:43:11.727Z,47.72
2019-02-18T09:44:11.758Z,48.15
2019-02-18T09:45:11.704Z,48.25
2019-02-18T09:46:11.797Z,48.46
2019-02-18T09:47:11.682Z,47.34
2019-02-18T09:48:11.783Z,49.15
2019-02-18T09:49:11.664Z,47.82
2019-02-18T09:50:11.698Z,47.19
2019-02-18T09:51:11.656Z,47.27
2019-02-18T09:52:11.712Z,47.11
2019-02-18T09:53:11.628Z,48.33
2019-02-18T09:54:11.721Z,47.50
2019-02-18T09:55:11.603Z,46.70
2019-02-18T09:56:11.659Z,46.11
2019-02-18T09:57:11.577Z,46.74
2019-02-18T09:58:11.647Z,46.49
2019-02-18T09:59:11.555Z,46.01
2019-02-18T10:00:11.558Z,47.35
2019-02-18T10:01:11.551Z,45.78
2019-02-18T10:02:11.578Z,46.31
2019-02-18T10:03:11.513Z,46.01
2019-02-18T10:04:12.613Z,45.29
2019-02-18T10:05:11.493Z,44.48
2019-02-18T10:06:12.559Z,45.43
2019-02-18T10:07:11.468Z,45.51
2019-02-18T10:08:11.513Z,46.47
2019-02-18T10:09:11.444Z,47.61
2019-02-18T10:10:11.436Z,45.42
2019-02-18T10:11:11.436Z,43.52
2019-02-18T10:12:18.274Z,43.29
2019-02-18T10:13:12.414Z,42.68
2019-02-18T10:14:11.499Z,43.43
2019-02-18T10:15:11.379Z,45.25
2019-02-18T10:16:11.495Z,44.36
2019-02-18T10:17:11.362Z,45.29
2019-02-18T10:18:11.374Z,45.51
2019-02-18T10:19:11.333Z,46.26
2019-02-18T10:20:11.392Z,44.64
2019-02-18T10:21:11.344Z,45.61
2019-02-18T10:22:11.402Z,43.14
2019-02-18T10:23:11.292Z,44.27
2019-02-18T10:24:11.313Z,43.26
2019-02-18T10:25:11.268Z,41.77
2019-02-18T10:26:11.327Z,42.98
2019-02-18T10:27:11.265Z,42.88
2019-02-18T10:28:11.340Z,42.31
2019-02-18T10:29:11.222Z,43.85
2019-02-18T10:30:11.252Z,43.44
2019-02-18T10:31:11.201Z,43.14
2019-02-18T10:32:11.295Z,45.98
2019-02-18T10:33:11.182Z,42.78
2019-02-18T10:34:11.279Z,40.92
2019-02-18T10:35:11.186Z,40.41
2019-02-18T10:36:11.191Z,41.22
2019-02-18T10:37:11.166Z,41.83
2019-02-18T10:38:11.204Z,42.43
2019-02-18T10:39:11.117Z,41.00
2019-02-18T10:40:11.228Z,39.45
2019-02-18T10:41:11.097Z,40.90
2019-02-18T10:42:11.154Z,40.72
2019-02-18T10:43:11.072Z,38.60
2019-02-18T10:44:11.145Z,38.22
2019-02-18T10:45:11.054Z,39.92
2019-02-18T10:46:11.064Z,40.05
2019-02-18T10:47:11.046Z,38.12
2019-02-18T10:48:11.077Z,38.10
2019-02-18T10:49:19.383Z,37.56
2019-02-18T10:50:12.000Z,36.44
2019-02-18T10:51:10.994Z,38.59
2019-02-18T10:52:10.999Z,38.07
2019-02-18T10:53:11.003Z,40.66
2019-02-18T10:54:10.966Z,42.09
2019-02-18T10:55:11.016Z,42.52
2019-02-18T10:56:10.949Z,41.44
2019-02-18T10:57:10.984Z,41.83
2019-02-18T10:58:10.919Z,39.50
2019-02-18T10:59:11.062Z,39.70
2019-02-18T11:00:10.921Z,40.13
2019-02-18T11:01:10.951Z,40.68
2019-02-18T11:02:10.882Z,39.35
2019-02-18T11:03:10.993Z,37.90
2019-02-18T11:04:10.852Z,36.54
2019-02-18T11:05:10.877Z,36.72
2019-02-18T11:06:10.833Z,37.32
2019-02-18T11:07:10.921Z,37.21
2019-02-18T11:08:10.814Z,36.70
2019-02-18T11:09:10.803Z,36.38
2019-02-18T11:10:10.787Z,35.46
2019-02-18T11:11:16.985Z,37.10
2019-02-18T11:12:11.779Z,36.50
2019-02-18T11:13:10.833Z,36.70
2019-02-18T11:14:10.748Z,37.52
2019-02-18T11:15:10.856Z,37.12
2019-02-18T11:16:10.725Z,36.86
2019-02-18T11:17:10.781Z,37.09
2019-02-18T11:18:10.705Z,37.84
2019-02-18T11:19:10.769Z,37.90
2019-02-18T11:20:10.684Z,37.98
2019-02-18T11:21:10.681Z,37.04
2019-02-18T11:22:10.672Z,37.41
2019-02-18T11:23:10.698Z,37.05
2019-02-18T11:24:10.635Z,36.03
2019-02-18T11:25:10.708Z,35.35
2019-02-18T11:26:10.616Z,35.48
2019-02-18T11:27:10.649Z,35.66
2019-02-18T11:28:10.605Z,37.54
2019-02-18T11:29:10.636Z,37.24
2019-02-18T11:30:10.577Z,38.27
2019-02-18T11:31:10.652Z,37.06
2019-02-18T11:32:10.571Z,36.99
2019-02-18T11:33:10.582Z,37.80
2019-02-18T11:34:10.536Z,38.25
2019-02-18T11:35:11.602Z,35.53
2019-02-18T11:36:10.519Z,35.39
2019-02-18T11:37:13.752Z,35.33
2019-02-18T11:38:10.492Z,37.29
2019-02-18T11:39:10.500Z,36.89
2019-02-18T11:40:10.486Z,37.04
2019-02-18T11:41:10.509Z,37.31
2019-02-18T11:42:10.482Z,36.98
2019-02-18T11:43:12.476Z,36.92
2019-02-18T11:44:10.444Z,36.94
2019-02-18T11:45:10.435Z,36.98
2019-02-18T11:46:10.417Z,36.99
2019-02-18T11:47:10.480Z,37.58
2019-02-18T11:48:10.393Z,36.86
2019-02-18T11:49:10.509Z,37.26
2019-02-18T11:50:10.375Z,37.38
2019-02-18T11:51:10.364Z,37.80
2019-02-18T11:52:10.391Z,36.96
2019-02-18T11:53:10.394Z,37.24
2019-02-18T11:54:10.327Z,36.96
2019-02-18T11:55:10.408Z,36.96
2019-02-18T11:56:10.305Z,36.72
2019-02-18T11:57:10.313Z,37.21
2019-02-18T11:58:10.300Z,37.26
2019-02-18T11:59:10.326Z,37.87
2019-02-18T12:00:10.265Z,37.92
2019-02-18T12:01:10.340Z,37.84
2019-02-18T12:02:10.244Z,38.62
2019-02-18T12:03:12.622Z,38.24
2019-02-18T12:04:10.222Z,38.86
2019-02-18T12:05:10.266Z,37.93
2019-02-18T12:06:10.200Z,38.04
2019-02-18T12:07:10.289Z,38.62
2019-02-18T12:08:10.195Z,38.30
2019-02-18T12:09:10.298Z,37.06
2019-02-18T12:10:10.163Z,37.12
2019-02-18T12:11:10.208Z,36.98
2019-02-18T12:12:10.139Z,36.64
2019-02-18T12:13:10.246Z,36.00
2019-02-18T12:14:10.115Z,36.90
2019-02-18T12:15:10.150Z,36.77
2019-02-18T12:16:10.097Z,34.84
2019-02-18T12:17:20.063Z,34.64
2019-02-18T12:18:13.654Z,35.85
2019-02-18T12:19:10.158Z,36.45
2019-02-18T12:20:10.053Z,37.10
2019-02-18T12:21:11.095Z,37.21
2019-02-18T12:22:12.048Z,36.50
2019-02-18T12:23:11.135Z,37.17
2019-02-18T12:24:10.010Z,36.16
2019-02-18T12:25:10.097Z,37.37
2019-02-18T12:26:09.991Z,37.08
2019-02-18T12:27:10.007Z,36.97
2019-02-18T12:28:09.989Z,37.13
2019-02-18T12:29:10.021Z,36.80
2019-02-18T12:30:09.948Z,37.01
2019-02-18T12:31:10.034Z,36.92
2019-02-18T12:32:09.929Z,37.54
2019-02-18T12:33:09.971Z,37.23
2019-02-18T12:34:09.919Z,36.57
2019-02-18T12:35:09.900Z,37.92
2019-02-18T12:36:09.887Z,37.87
2019-02-18T12:37:09.973Z,37.83
2019-02-18T12:38:09.881Z,36.90
2019-02-18T12:39:09.891Z,37.23
2019-02-18T12:40:09.848Z,37.85
2019-02-18T12:41:09.841Z,37.23
2019-02-18T12:42:09.886Z,37.14
2019-02-18T12:43:09.833Z,37.83
2019-02-18T12:44:09.807Z,37.07
2019-02-18T12:45:09.814Z,35.33
2019-02-18T12:46:15.693Z,35.61
2019-02-18T12:47:10.859Z,35.25
2019-02-18T12:48:09.777Z,36.38
2019-02-18T12:49:09.764Z,36.55
2019-02-18T12:50:09.746Z,36.32
2019-02-18T12:51:09.741Z,37.23
2019-02-18T12:52:09.739Z,36.99